Nouveau site Autre version du site

Autre présentation du siteun concentré d'infos sur une page

In Memoriam - 26/08/2020Pascale Declercq + 23/08/2020 Leuven



 

Valid CSS!


Rapports METAR à proximité

   
LFQQ - Lille/Lesquin, France
Distance: SE 22 km
Mise à jour: 18-06-2024 06:30
Clair  
Clair  
   Vent: NE 13 km/h
Vent: NE 13 km/h
Température: 16°C
Point de rosée: 13°C
Humidité: 83%
Baromètre: 1013 hPa
visibilité: More than 10 km
Détails des nuages: Clair m
LFQQ 180430Z AUTO 05007KT CAVOK 16/13 Q1013 NOSIG
EBFN - Koksijde (bel-Af, Belgium
Distance: NNO 42 km
Mise à jour: 18-06-2024 05:44
Nuageux  
Nuageux  
   Vent: varie 2 km/h
Vent: varie 2 km/h
Température: 15°C
Point de rosée: 13°C
Humidité: 88%
Baromètre: 1013 hPa
Nuages: Overcast
visibilité: 9 km
Détails des nuages: Nuageux 1371.6 m
EBFN 180344Z AUTO VRB01KT 9000 OVC045/// 15/13 Q1013 BLU
EBOS - Oostende Airport, Belgium
Distance: N 53 km
Mise à jour: 18-06-2024 06:20
Partiellement nuageux  
Partiellement nuageux  
   Vent: NE 6 km/h
Vent: NE 6 km/h
Température: 15°C
Point de rosée: 13°C
Humidité: 88%
Baromètre: 1013 hPa
Nuages: Partly Cloudy
visibilité: 9 km
Détails des nuages: Partiellement nuageux 1371.6 m
EBOS 180420Z 05003KT 010V100 9000 SCT045 15/13 Q1013 NOSIG

Script développé par  Saratoga-weather.org Adapté pour le modèle par  Weerstation Leuven

Vous trouverez notre info météo Également à:

Het Weer Aktueel

UK Metoffice

European Weather Network

Weather Underground

AWEKAS

Citizen Weather Observer Program (CWOP)

HAMweather, WeatherForYou, PWS Weather

Équipement utilisé:

Station de Météo
Vantage Pro2

Programme Météo
cumulusMX

Ordinateur Météo
ThinkCentre M93p

Fournisseur d'accès Internet
Hébergé par

Vantage Pro2

cumulusMX

ThinkCentre M93p

Hébergé par